Αρχική σελίδα
METAR-TAF:

METAR-TAF

Αεροδρόμια :

Caxias do Sul, Ρίο Γκράντε ντο Σουλ, Βραζιλία

γεωγραφικό πλάτος: 29-11-44S, γεωγραφικό μήκος: 051-11-23W, υψόμετρο: 754 μ

Παρών καιρός

Η αναφορά έγινε 59 λεπτά πριν, στις 16:00 UTC
Ήπιος άνεμος
Θερμοκρασία 20°C
Υγρασία 78%
Πίεση 1018 hPa
Ορατότητα 10 χλμ και άνω
Δεν υπάρχουν νέφη με βάση κάτω από τα 1500 μ. και δεν υπάρχουν νέφη σωρειτομελανίτες.

METAR: SBCX 151600Z 00000KT CAVOK 20/16 Q1018

Χρόνος: 13:59 (16:59 UTC)


TAF: λείπει

Μετεωρολογικές αναφορές και προγνώσεις για περισσότερα από 4000 αεροδρόμια (δελτία METAR και TAF).

Οι διαθέσιμοι σταθμοί απεικονίζονται στο χάρτη με κίτρινες και κόκκινες κουκκίδες.

Μετακινήστε το ποντίκι πάνω από τις κουκκίδες για να δείτε το όνομα του σταθμού.

Στη συνέχεια, κάντε κλικ για να δείτε τις μετεωρολογικές αναφορές και τις προγνώσεις καιρού.

Για να αλλάξετε το χάρτη: κάντε κλικ στα πράσινα κουμπιά με τον μαύρο σταυρό για να ζουμάρετε, στο πράσινο κουμπί με την παύλα για να αφαιρέσετε το ζουμ ή στα πράσινα βέλη για να αντιπαραβάλλετε χάρτες.


METAR-TAF: